createdAt,value
2024-02-16T00:01:02.412Z,1.00
2024-02-16T00:03:29.352Z,0.80
2024-02-16T00:05:56.440Z,0.88
2024-02-16T00:08:23.214Z,0.88
2024-02-16T00:10:49.988Z,0.90
2024-02-16T00:13:16.713Z,0.68
2024-02-16T00:15:43.451Z,0.90
2024-02-16T00:18:10.230Z,1.13
2024-02-16T00:20:36.977Z,0.88
2024-02-16T00:23:03.713Z,0.90
2024-02-16T00:25:30.761Z,0.80
2024-02-16T00:27:57.493Z,0.98
2024-02-16T00:30:24.306Z,0.82
2024-02-16T00:32:51.275Z,0.88
2024-02-16T00:35:19.115Z,0.85
2024-02-16T00:37:46.954Z,0.73
2024-02-16T00:40:13.839Z,0.90
2024-02-16T00:42:40.756Z,0.60
2024-02-16T00:45:08.265Z,1.17
2024-02-16T00:47:35.078Z,0.77
2024-02-16T00:50:02.049Z,0.85
2024-02-16T00:52:28.770Z,0.98
2024-02-16T00:54:55.513Z,0.88
2024-02-16T00:57:22.258Z,0.82
2024-02-16T00:59:48.995Z,0.88
2024-02-16T01:02:17.824Z,0.68
2024-02-16T01:04:44.573Z,0.70
2024-02-16T01:07:11.353Z,0.85
2024-02-16T01:09:38.103Z,0.77
2024-02-16T01:12:04.969Z,0.93
2024-02-16T01:14:31.667Z,0.90
2024-02-16T01:16:58.336Z,0.93
2024-02-16T01:19:25.129Z,1.10
2024-02-16T01:21:54.285Z,0.98
2024-02-16T01:24:22.428Z,1.30
2024-02-16T01:26:49.485Z,0.90
2024-02-16T01:29:16.273Z,0.60
2024-02-16T01:31:42.919Z,1.00
2024-02-16T01:34:09.748Z,0.80
2024-02-16T01:36:36.512Z,1.30
2024-02-16T01:39:03.404Z,1.10
2024-02-16T01:41:30.227Z,1.20
2024-02-16T01:43:57.375Z,0.90
2024-02-16T01:46:24.139Z,0.70
2024-02-16T01:48:51.801Z,0.90
2024-02-16T01:51:19.108Z,1.05
2024-02-16T01:53:47.164Z,0.80
2024-02-16T01:56:13.937Z,0.90
2024-02-16T01:58:40.849Z,0.80
2024-02-16T02:01:07.620Z,0.60
2024-02-16T02:03:36.168Z,0.60
2024-02-16T02:06:03.222Z,0.70
2024-02-16T02:08:30.422Z,0.55
2024-02-16T02:10:57.273Z,0.90
2024-02-16T02:13:24.102Z,0.77
2024-02-16T02:15:50.938Z,0.80
2024-02-16T02:18:17.902Z,0.70
2024-02-16T02:20:44.718Z,0.60
2024-02-16T02:23:11.385Z,0.75
2024-02-16T02:25:38.085Z,0.60
2024-02-16T02:28:05.118Z,0.70
2024-02-16T02:30:31.946Z,0.60
2024-02-16T02:32:58.887Z,0.70
2024-02-16T02:35:25.669Z,0.73
2024-02-16T02:37:52.352Z,1.23
2024-02-16T02:40:19.246Z,0.60
2024-02-16T02:42:45.995Z,0.63
2024-02-16T02:45:12.722Z,0.57
2024-02-16T02:47:39.587Z,0.77
2024-02-16T02:50:07.271Z,0.80
2024-02-16T02:52:33.999Z,0.90
2024-02-16T02:55:00.670Z,0.68
2024-02-16T02:57:27.466Z,1.10
2024-02-16T02:59:54.286Z,0.65
2024-02-16T03:02:21.046Z,0.65
2024-02-16T03:04:47.984Z,0.80
2024-02-16T03:07:15.488Z,0.82
2024-02-16T03:09:44.436Z,0.63
2024-02-16T03:12:11.119Z,0.80
2024-02-16T03:14:38.665Z,0.82
2024-02-16T03:17:06.579Z,0.50
2024-02-16T03:19:33.554Z,1.20
2024-02-16T03:22:00.414Z,0.73
2024-02-16T03:24:27.137Z,0.50
2024-02-16T03:26:53.920Z,0.50
2024-02-16T03:29:20.645Z,0.82
2024-02-16T03:31:47.351Z,0.70
2024-02-16T03:34:14.314Z,0.52
2024-02-16T03:36:41.071Z,0.60
2024-02-16T03:39:10.338Z,0.50
2024-02-16T03:41:37.119Z,0.90
2024-02-16T03:44:03.918Z,0.63
2024-02-16T03:46:31.245Z,0.73
2024-02-16T03:48:58.231Z,0.88
2024-02-16T03:51:25.216Z,0.90
2024-02-16T03:53:51.931Z,0.77
2024-02-16T03:56:22.153Z,0.75
2024-02-16T03:58:49.191Z,0.77
2024-02-16T04:01:15.975Z,0.50
2024-02-16T04:03:42.819Z,0.57
2024-02-16T04:06:09.551Z,0.93
2024-02-16T04:08:36.256Z,0.70
2024-02-16T04:11:04.127Z,0.88
2024-02-16T04:13:30.961Z,0.82
2024-02-16T04:15:57.745Z,0.93
2024-02-16T04:18:24.698Z,0.75
2024-02-16T04:20:51.488Z,0.60
2024-02-16T04:23:18.158Z,1.15
2024-02-16T04:25:44.844Z,1.23
2024-02-16T04:28:11.582Z,0.70
2024-02-16T04:30:38.355Z,0.95
2024-02-16T04:33:05.571Z,1.00
2024-02-16T04:35:32.654Z,0.63
2024-02-16T04:37:59.331Z,0.70
2024-02-16T04:40:26.321Z,0.60
2024-02-16T04:42:53.014Z,0.82
2024-02-16T04:45:19.970Z,0.70
2024-02-16T04:47:47.097Z,0.60
2024-02-16T04:50:15.029Z,2.50
2024-02-16T04:52:42.287Z,1.55
2024-02-16T04:55:09.387Z,1.80
2024-02-16T04:57:36.319Z,1.27
2024-02-16T05:00:04.328Z,1.20
2024-02-16T05:02:31.060Z,1.02
2024-02-16T05:04:59.326Z,0.90
2024-02-16T05:07:27.355Z,0.70
2024-02-16T05:09:59.108Z,0.85
2024-02-16T05:12:26.569Z,0.80
2024-02-16T05:14:57.204Z,0.88
2024-02-16T05:17:27.665Z,0.65
2024-02-16T05:19:55.164Z,0.70
2024-02-16T05:22:23.169Z,0.80
2024-02-16T05:24:50.050Z,0.68
2024-02-16T05:27:17.064Z,1.02
2024-02-16T05:29:43.783Z,0.80
2024-02-16T05:32:11.709Z,0.80
2024-02-16T05:34:38.919Z,0.80
2024-02-16T05:37:07.564Z,0.75
2024-02-16T05:39:37.040Z,0.80
2024-02-16T05:42:04.132Z,0.80
2024-02-16T05:44:31.248Z,0.77
2024-02-16T05:46:58.793Z,1.17
2024-02-16T05:49:25.992Z,1.20
2024-02-16T05:52:11.202Z,0.70
2024-02-16T05:54:39.166Z,0.70
2024-02-16T05:57:06.713Z,0.80
2024-02-16T05:59:33.817Z,0.65
2024-02-16T06:02:00.442Z,1.35
2024-02-16T06:04:27.753Z,1.58
2024-02-16T06:06:55.507Z,1.05
2024-02-16T06:09:22.373Z,1.75
2024-02-16T06:11:49.916Z,1.20
2024-02-16T06:14:20.276Z,1.38
2024-02-16T06:16:47.293Z,1.10
2024-02-16T06:19:30.232Z,1.65
2024-02-16T06:21:57.504Z,1.67
2024-02-16T06:24:24.739Z,1.45
2024-02-16T06:26:55.805Z,1.58
2024-02-16T06:29:24.205Z,1.92
2024-02-16T06:31:51.022Z,2.30
2024-02-16T06:34:17.882Z,1.77
2024-02-16T06:36:44.714Z,2.00
2024-02-16T06:39:12.601Z,2.45
2024-02-16T06:41:40.297Z,1.40
2024-02-16T06:44:07.030Z,1.90
2024-02-16T06:46:34.379Z,1.70
2024-02-16T06:49:01.146Z,1.10
2024-02-16T06:51:29.667Z,1.48
2024-02-16T06:53:56.419Z,1.75
2024-02-16T06:56:23.451Z,1.55
2024-02-16T06:58:50.269Z,1.67
2024-02-16T07:01:19.637Z,1.30
2024-02-16T07:03:46.697Z,1.88
2024-02-16T07:06:15.137Z,1.60
2024-02-16T07:08:42.477Z,1.52
2024-02-16T07:11:09.827Z,1.10
2024-02-16T07:13:38.880Z,1.40
2024-02-16T07:16:07.816Z,1.23
2024-02-16T07:18:35.043Z,1.10
2024-02-16T07:21:02.937Z,1.67
2024-02-16T07:23:30.159Z,1.00
2024-02-16T07:25:59.483Z,1.48
2024-02-16T07:28:27.292Z,1.20
2024-02-16T07:30:54.404Z,1.00
2024-02-16T07:33:21.384Z,0.85
2024-02-16T07:35:48.763Z,1.10
2024-02-16T07:38:15.544Z,1.08
2024-02-16T07:40:42.216Z,1.20
2024-02-16T07:43:09.670Z,0.93
2024-02-16T07:45:36.513Z,1.15
2024-02-16T07:48:07.986Z,0.90
2024-02-16T07:53:02.223Z,0.80
2024-02-16T07:55:29.315Z,1.20
2024-02-16T07:57:56.053Z,1.00
2024-02-16T08:00:23.048Z,1.00
2024-02-16T08:02:58.180Z,0.95
2024-02-16T08:05:26.911Z,0.93
2024-02-16T08:07:54.326Z,1.40
2024-02-16T08:10:26.491Z,1.13
2024-02-16T08:12:53.828Z,1.52
2024-02-16T08:15:29.179Z,1.13
2024-02-16T08:17:56.161Z,1.90
2024-02-16T08:20:23.164Z,1.88
2024-02-16T08:22:58.712Z,2.00
2024-02-16T08:25:25.788Z,2.50
2024-02-16T08:27:52.681Z,2.30
2024-02-16T08:30:26.554Z,3.20
2024-02-16T08:32:55.258Z,5.25
2024-02-16T08:35:22.413Z,4.28
2024-02-16T08:37:49.273Z,2.10
2024-02-16T08:40:16.580Z,2.05
2024-02-16T08:42:43.778Z,2.17
2024-02-16T08:45:11.460Z,1.52
2024-02-16T08:47:40.144Z,1.98
2024-02-16T08:50:08.275Z,1.83
2024-02-16T08:52:35.570Z,2.17
2024-02-16T08:55:02.401Z,1.45
2024-02-16T08:57:40.928Z,1.55
2024-02-16T09:00:08.870Z,1.38
2024-02-16T09:05:30.960Z,1.67
2024-02-16T09:07:57.685Z,1.60
2024-02-16T09:10:24.359Z,2.25
2024-02-16T09:12:52.926Z,2.90
2024-02-16T09:15:19.584Z,3.83
2024-02-16T09:17:46.679Z,2.95
2024-02-16T09:20:13.656Z,3.13
2024-02-16T09:22:46.827Z,4.60
2024-02-16T09:25:15.517Z,4.55
2024-02-16T09:27:45.981Z,4.22
2024-02-16T09:30:13.924Z,5.33
2024-02-16T09:32:41.793Z,5.43
2024-02-16T09:35:08.703Z,6.50
2024-02-16T09:37:36.890Z,6.03
2024-02-16T09:40:04.986Z,5.78
2024-02-16T09:42:31.635Z,6.00
2024-02-16T09:44:58.280Z,5.90
2024-02-16T09:47:34.146Z,4.60
2024-02-16T09:50:01.041Z,4.45
2024-02-16T09:52:28.135Z,4.00
2024-02-16T09:54:54.751Z,3.95
2024-02-16T09:57:22.056Z,4.03
2024-02-16T09:59:48.752Z,3.45
2024-02-16T10:02:15.357Z,3.10
2024-02-16T10:04:42.448Z,2.53
2024-02-16T10:07:12.632Z,2.00
2024-02-16T10:09:41.878Z,1.48
2024-02-16T10:12:09.992Z,1.67
2024-02-16T10:14:36.617Z,1.10
2024-02-16T10:17:05.065Z,1.20
2024-02-16T10:19:40.717Z,1.08
2024-02-16T10:22:14.144Z,1.17
2024-02-16T10:24:42.327Z,1.13
2024-02-16T10:27:20.219Z,1.15
2024-02-16T10:29:54.991Z,1.50
2024-02-16T10:32:21.774Z,1.30
2024-02-16T10:34:50.696Z,0.80
2024-02-16T10:37:18.342Z,1.08
2024-02-16T10:39:46.376Z,0.90
2024-02-16T10:42:15.561Z,1.05
2024-02-16T10:44:43.797Z,0.82
2024-02-16T10:47:10.632Z,1.65
2024-02-16T10:49:37.650Z,0.93
2024-02-16T10:52:07.527Z,1.00
2024-02-16T10:54:35.462Z,1.30
2024-02-16T10:57:02.271Z,0.95
2024-02-16T10:59:41.835Z,0.98
2024-02-16T11:02:08.477Z,1.27
2024-02-16T11:04:42.119Z,0.88
2024-02-16T11:07:26.945Z,1.25
2024-02-16T11:09:53.684Z,0.98
2024-02-16T11:12:20.351Z,1.45
2024-02-16T11:14:55.985Z,1.30
2024-02-16T11:17:24.458Z,1.15
2024-02-16T11:19:52.147Z,1.13
2024-02-16T11:22:20.797Z,1.10
2024-02-16T11:24:54.533Z,1.58
2024-02-16T11:27:23.435Z,1.27
2024-02-16T11:29:51.361Z,1.33
2024-02-16T11:32:20.403Z,1.48
2024-02-16T11:34:47.517Z,1.65
2024-02-16T11:37:15.804Z,1.45
2024-02-16T11:39:45.982Z,1.73
2024-02-16T11:42:14.968Z,1.47
2024-02-16T11:44:55.836Z,1.20
2024-02-16T11:47:27.655Z,1.58
2024-02-16T11:50:01.878Z,1.15
2024-02-16T11:52:28.683Z,1.20
2024-02-16T11:54:57.790Z,1.15
2024-02-16T11:57:25.981Z,1.27
2024-02-16T11:59:53.373Z,1.25
2024-02-16T12:02:21.970Z,1.10
2024-02-16T12:04:55.439Z,1.05
2024-02-16T12:07:29.665Z,1.45
2024-02-16T12:10:00.438Z,1.23
2024-02-16T12:12:28.527Z,1.35
2024-02-16T12:14:56.173Z,1.63
2024-02-16T12:17:23.273Z,1.40
2024-02-16T12:19:53.368Z,0.90
2024-02-16T12:22:21.566Z,1.35
2024-02-16T12:24:49.198Z,1.10
2024-02-16T12:27:15.948Z,1.15
2024-02-16T12:29:42.579Z,1.20
2024-02-16T12:32:10.614Z,1.80
2024-02-16T12:34:40.758Z,1.30
2024-02-16T12:37:12.553Z,1.40
2024-02-16T12:39:40.486Z,1.98
2024-02-16T12:42:07.819Z,1.42
2024-02-16T12:44:34.368Z,1.50
2024-02-16T12:47:00.980Z,1.50
2024-02-16T12:49:27.659Z,1.50
2024-02-16T12:51:55.578Z,1.15
2024-02-16T12:54:23.527Z,1.40
2024-02-16T12:56:51.035Z,1.30
2024-02-16T12:59:18.109Z,1.42
2024-02-16T13:01:45.281Z,1.40
2024-02-16T13:04:12.149Z,1.42
2024-02-16T13:06:39.027Z,1.40
2024-02-16T13:09:06.830Z,0.93
2024-02-16T13:11:35.378Z,1.10
2024-02-16T13:14:02.229Z,1.20
2024-02-16T13:16:28.886Z,2.05
2024-02-16T13:18:55.533Z,1.45
2024-02-16T13:21:22.481Z,1.60
2024-02-16T13:23:49.415Z,1.15
2024-02-16T13:26:16.150Z,1.75
2024-02-16T13:28:42.758Z,1.20
2024-02-16T13:31:11.257Z,1.30
2024-02-16T13:33:38.447Z,2.20
2024-02-16T13:36:06.600Z,1.70
2024-02-16T13:38:33.288Z,1.50
2024-02-16T13:40:59.958Z,1.35
2024-02-16T13:43:27.225Z,1.25
2024-02-16T13:45:55.590Z,1.45
2024-02-16T13:48:23.107Z,1.60
2024-02-16T13:50:50.891Z,2.33
2024-02-16T13:53:21.337Z,1.52
2024-02-16T13:55:48.974Z,1.42
2024-02-16T13:58:15.806Z,1.80
2024-02-16T14:00:42.599Z,1.58
2024-02-16T14:03:15.813Z,1.20
2024-02-16T14:05:45.545Z,1.45
2024-02-16T14:08:13.914Z,1.70
2024-02-16T14:10:40.708Z,1.20
2024-02-16T14:13:07.568Z,1.40
2024-02-16T14:15:34.242Z,1.50
2024-02-16T14:18:06.338Z,1.63
2024-02-16T14:20:38.738Z,1.13
2024-02-16T14:23:09.023Z,1.63
2024-02-16T14:25:38.094Z,1.60
2024-02-16T14:28:05.247Z,1.33
2024-02-16T14:30:33.544Z,1.50
2024-02-16T14:33:00.653Z,1.30
2024-02-16T14:35:27.365Z,1.35
2024-02-16T14:37:54.022Z,1.45
2024-02-16T14:40:20.630Z,1.73
2024-02-16T14:42:47.264Z,1.90
2024-02-16T14:45:20.982Z,1.48
2024-02-16T14:47:51.885Z,1.92
2024-02-16T14:50:18.769Z,2.35
2024-02-16T14:52:46.537Z,1.55
2024-02-16T14:55:14.673Z,1.30
2024-02-16T14:57:42.169Z,1.30
2024-02-16T15:00:10.592Z,1.10
2024-02-16T15:02:38.520Z,1.20
2024-02-16T15:05:06.613Z,1.30
2024-02-16T15:07:33.348Z,1.63
2024-02-16T15:10:00.612Z,1.45
2024-02-16T15:12:28.533Z,1.45
2024-02-16T15:14:56.132Z,1.52
2024-02-16T15:17:23.107Z,1.80
2024-02-16T15:19:50.039Z,1.13
2024-02-16T15:22:16.877Z,1.30
2024-02-16T15:24:43.845Z,1.60
2024-02-16T15:27:11.548Z,1.25
2024-02-16T15:29:38.268Z,1.38
2024-02-16T15:32:05.148Z,2.70
2024-02-16T15:34:31.946Z,1.63
2024-02-16T15:36:59.731Z,1.75
2024-02-16T15:39:26.615Z,1.25
2024-02-16T15:41:56.464Z,1.25
2024-02-16T15:44:23.354Z,1.75
2024-02-16T15:46:49.991Z,1.88
2024-02-16T15:49:16.784Z,1.73
2024-02-16T15:51:43.618Z,1.45
2024-02-16T15:54:10.331Z,1.65
2024-02-16T15:56:37.033Z,1.73
2024-02-16T15:59:03.767Z,1.38
2024-02-16T16:01:31.641Z,1.95
2024-02-16T16:03:58.407Z,1.92
2024-02-16T16:06:25.300Z,2.60
2024-02-16T16:08:52.697Z,2.13
2024-02-16T16:11:20.181Z,2.58
2024-02-16T16:13:47.064Z,2.20
2024-02-16T16:16:13.971Z,1.50
2024-02-16T16:18:40.649Z,1.40
2024-02-16T16:21:07.595Z,2.17
2024-02-16T16:23:38.847Z,1.83
2024-02-16T16:26:05.680Z,1.73
2024-02-16T16:28:32.986Z,2.30
2024-02-16T16:31:01.707Z,1.90
2024-02-16T16:33:28.797Z,1.80
2024-02-16T16:35:55.964Z,1.52
2024-02-16T16:38:22.819Z,2.47
2024-02-16T16:40:49.865Z,1.30
2024-02-16T16:43:17.295Z,1.58
2024-02-16T16:45:44.023Z,1.48
2024-02-16T16:48:11.024Z,1.70
2024-02-16T16:50:38.129Z,1.42
2024-02-16T16:53:05.685Z,1.40
2024-02-16T16:55:32.614Z,1.58
2024-02-16T16:57:59.373Z,1.60
2024-02-16T17:00:26.176Z,1.48
2024-02-16T17:02:52.972Z,1.77
2024-02-16T17:05:19.609Z,1.85
2024-02-16T17:07:49.501Z,1.95
2024-02-16T17:10:16.952Z,1.88
2024-02-16T17:12:45.519Z,2.20
2024-02-16T17:15:19.174Z,2.30
2024-02-16T17:17:52.116Z,1.77
2024-02-16T17:20:22.549Z,1.58
2024-02-16T17:22:50.339Z,1.88
2024-02-16T17:25:17.018Z,2.45
2024-02-16T17:27:45.459Z,1.88
2024-02-16T17:30:13.014Z,1.95
2024-02-16T17:32:41.935Z,2.00
2024-02-16T17:35:09.720Z,3.83
2024-02-16T17:37:36.832Z,2.50
2024-02-16T17:40:04.948Z,3.00
2024-02-16T17:42:31.645Z,3.28
2024-02-16T17:44:59.772Z,3.00
2024-02-16T17:47:26.476Z,1.90
2024-02-16T17:49:53.302Z,2.25
2024-02-16T17:52:20.398Z,2.67
2024-02-16T17:54:47.051Z,1.95
2024-02-16T17:57:13.656Z,1.90
2024-02-16T17:59:40.299Z,2.45
2024-02-16T18:02:17.174Z,2.80
2024-02-16T18:04:52.364Z,2.03
2024-02-16T18:07:19.218Z,1.70
2024-02-16T18:09:46.827Z,1.40
2024-02-16T18:12:17.749Z,1.67
2024-02-16T18:14:45.239Z,2.15
2024-02-16T18:17:13.940Z,2.42
2024-02-16T18:19:41.209Z,1.52
2024-02-16T18:22:11.146Z,2.17
2024-02-16T18:24:38.167Z,1.58
2024-02-16T18:27:05.559Z,1.52
2024-02-16T18:29:32.361Z,1.55
2024-02-16T18:31:59.007Z,1.50
2024-02-16T18:34:25.809Z,1.65
2024-02-16T18:36:53.275Z,1.40
2024-02-16T18:39:20.780Z,1.30
2024-02-16T18:41:47.930Z,1.20
2024-02-16T18:44:16.494Z,1.90
2024-02-16T18:46:43.909Z,1.98
2024-02-16T18:49:11.294Z,1.30
2024-02-16T18:51:38.640Z,1.75
2024-02-16T18:54:07.005Z,1.40
2024-02-16T18:56:33.757Z,1.90
2024-02-16T18:59:01.371Z,1.77
2024-02-16T19:01:28.572Z,1.40
2024-02-16T19:03:55.483Z,1.63
2024-02-16T19:06:22.416Z,1.92
2024-02-16T19:08:49.188Z,2.03
2024-02-16T19:11:16.044Z,1.98
2024-02-16T19:13:42.870Z,2.25
2024-02-16T19:16:09.459Z,2.25
2024-02-16T19:18:37.167Z,2.15
2024-02-16T19:21:07.715Z,2.25
2024-02-16T19:23:35.427Z,1.55
2024-02-16T19:26:02.738Z,2.22
2024-02-16T19:28:30.238Z,2.15
2024-02-16T19:30:58.170Z,1.63
2024-02-16T19:33:25.207Z,2.00
2024-02-16T19:35:53.402Z,2.20
2024-02-16T19:38:20.026Z,1.83
2024-02-16T19:40:46.772Z,2.47
2024-02-16T19:43:15.396Z,2.65
2024-02-16T19:45:42.287Z,2.33
2024-02-16T19:48:09.211Z,1.90
2024-02-16T19:50:35.900Z,2.30
2024-02-16T19:53:02.704Z,2.03
2024-02-16T19:55:29.629Z,2.63
2024-02-16T19:57:56.984Z,2.15
2024-02-16T20:00:24.642Z,2.90
2024-02-16T20:02:53.293Z,1.73
2024-02-16T20:05:23.582Z,2.72
2024-02-16T20:07:50.606Z,2.15
2024-02-16T20:10:17.765Z,2.00
2024-02-16T20:12:44.730Z,3.47
2024-02-16T20:15:11.735Z,2.22
2024-02-16T20:17:38.942Z,2.40
2024-02-16T20:20:06.669Z,2.85
2024-02-16T20:22:34.167Z,2.95
2024-02-16T20:25:01.443Z,2.70
2024-02-16T20:27:28.567Z,2.45
2024-02-16T20:29:55.941Z,2.50
2024-02-16T20:32:23.530Z,2.33
2024-02-16T20:34:50.419Z,2.35
2024-02-16T20:37:17.166Z,2.53
2024-02-16T20:39:43.796Z,2.28
2024-02-16T20:42:10.465Z,2.05
2024-02-16T20:44:38.456Z,2.40
2024-02-16T20:47:07.429Z,2.92
2024-02-16T20:49:34.729Z,2.95
2024-02-16T20:52:01.329Z,2.90
2024-02-16T20:54:31.277Z,2.28
2024-02-16T20:56:58.234Z,2.30
2024-02-16T20:59:25.007Z,2.03
2024-02-16T21:01:51.588Z,2.40
2024-02-16T21:04:34.717Z,2.35
2024-02-16T21:07:02.958Z,3.83
2024-02-16T21:09:29.813Z,2.30
2024-02-16T21:11:56.839Z,3.22
2024-02-16T21:14:23.918Z,3.40
2024-02-16T21:16:51.099Z,2.63
2024-02-16T21:19:23.968Z,2.83
2024-02-16T21:21:50.783Z,2.85
2024-02-16T21:24:21.563Z,3.03
2024-02-16T21:26:49.647Z,2.90
2024-02-16T21:29:17.521Z,3.03
2024-02-16T21:31:45.503Z,3.08
2024-02-16T21:34:13.482Z,3.42
2024-02-16T21:36:40.790Z,3.55
2024-02-16T21:39:08.258Z,3.47
2024-02-16T21:41:35.848Z,2.97
2024-02-16T21:44:04.648Z,3.63
2024-02-16T21:46:32.898Z,3.55
2024-02-16T21:49:04.951Z,2.97
2024-02-16T21:51:33.803Z,3.20
2024-02-16T21:54:00.878Z,2.55
2024-02-16T21:56:27.615Z,2.80
2024-02-16T21:58:56.203Z,2.70
2024-02-16T22:01:24.116Z,2.42
2024-02-16T22:03:52.383Z,2.13
2024-02-16T22:06:27.659Z,3.15
2024-02-16T22:08:54.933Z,3.35
2024-02-16T22:11:22.990Z,2.25
2024-02-16T22:13:50.286Z,2.63
2024-02-16T22:16:17.914Z,2.92
2024-02-16T22:18:46.146Z,1.92
2024-02-16T22:21:13.579Z,2.15
2024-02-16T22:23:41.025Z,2.17
2024-02-16T22:26:08.826Z,1.70
2024-02-16T22:28:35.706Z,2.20
2024-02-16T22:31:02.606Z,2.60
2024-02-16T22:33:29.690Z,2.15
2024-02-16T22:35:58.744Z,2.75
2024-02-16T22:38:25.517Z,1.77
2024-02-16T22:40:52.491Z,1.95
2024-02-16T22:43:19.122Z,1.60
2024-02-16T22:45:45.961Z,2.00
2024-02-16T22:48:15.236Z,1.63
2024-02-16T22:50:43.796Z,1.40
2024-02-16T22:53:10.996Z,1.65
2024-02-16T22:55:38.813Z,1.38
2024-02-16T22:58:06.866Z,1.58
2024-02-16T23:00:42.553Z,2.53
2024-02-16T23:03:13.217Z,1.65
2024-02-16T23:05:40.657Z,1.30
2024-02-16T23:08:08.396Z,2.20
2024-02-16T23:10:35.338Z,1.52
2024-02-16T23:13:03.599Z,1.38
2024-02-16T23:15:30.834Z,2.05
2024-02-16T23:17:57.490Z,1.35
2024-02-16T23:20:24.089Z,1.50
2024-02-16T23:23:11.578Z,1.55
2024-02-16T23:25:45.155Z,1.10
2024-02-16T23:28:16.064Z,1.02
2024-02-16T23:30:43.873Z,1.30
2024-02-16T23:33:14.388Z,1.35
2024-02-16T23:35:41.479Z,1.20
2024-02-16T23:38:11.309Z,1.40
2024-02-16T23:40:39.082Z,1.10
2024-02-16T23:43:05.963Z,1.63
2024-02-16T23:45:35.671Z,1.10
2024-02-16T23:48:02.794Z,1.33
2024-02-16T23:50:32.042Z,1.63
2024-02-16T23:52:59.365Z,1.00
2024-02-16T23:55:26.496Z,1.40
2024-02-16T23:57:54.168Z,1.50
